createdAt,value
2019-02-22T00:00:02.303Z,91.39
2019-02-22T00:05:01.007Z,92.01
2019-02-22T00:10:01.047Z,91.96
2019-02-22T00:15:01.077Z,92.31
2019-02-22T00:20:02.006Z,92.27
2019-02-22T00:25:02.028Z,92.22
2019-02-22T00:30:02.100Z,92.11
2019-02-22T00:35:02.048Z,92.22
2019-02-22T00:40:01.477Z,92.55
2019-02-22T00:45:00.447Z,92.41
2019-02-22T00:49:59.042Z,92.50
2019-02-22T00:55:00.049Z,92.53
2019-02-22T00:59:59.004Z,92.88
2019-02-22T01:04:59.059Z,93.09
2019-02-22T01:09:58.166Z,93.35
2019-02-22T01:14:58.003Z,93.53
2019-02-22T01:19:57.020Z,93.55
2019-02-22T01:24:57.107Z,93.68
2019-02-22T01:29:56.098Z,93.63
2019-02-22T01:34:55.047Z,93.71
2019-02-22T01:39:56.635Z,93.56
2019-02-22T01:44:55.009Z,93.72
2019-02-22T01:49:55.056Z,93.68
2019-02-22T01:54:54.122Z,93.71
2019-02-22T01:59:55.022Z,93.59
2019-02-22T02:04:54.035Z,93.66
2019-02-22T02:09:52.021Z,93.62
2019-02-22T02:14:52.033Z,93.47
2019-02-22T02:19:52.051Z,93.48
2019-02-22T02:24:51.015Z,93.49
2019-02-22T02:29:50.421Z,93.51
2019-02-22T02:34:50.092Z,93.66
2019-02-22T02:39:49.440Z,93.48
2019-02-22T02:44:48.310Z,93.76
2019-02-22T02:49:47.058Z,93.87
2019-02-22T02:54:46.091Z,94.01
2019-02-22T02:59:45.074Z,94.02
2019-02-22T03:04:44.379Z,94.00
2019-02-22T03:09:45.095Z,94.06
2019-02-22T03:14:45.137Z,94.08
2019-02-22T03:19:44.056Z,93.98
2019-02-22T03:24:43.027Z,94.09
2019-02-22T03:29:43.054Z,93.96
2019-02-22T03:34:42.460Z,94.02
2019-02-22T03:39:41.233Z,94.07
2019-02-22T03:44:41.054Z,94.12
2019-02-22T03:49:41.058Z,94.18
2019-02-22T03:54:41.056Z,94.32
2019-02-22T04:04:41.104Z,94.44
2019-02-22T04:09:41.081Z,94.51
2019-02-22T04:14:42.228Z,94.20
2019-02-22T04:19:42.125Z,94.29
2019-02-22T04:24:42.244Z,94.37
2019-02-22T04:29:41.216Z,94.40
2019-02-22T04:34:40.300Z,94.50
2019-02-22T04:39:39.034Z,94.54
2019-02-22T04:44:39.067Z,94.57
2019-02-22T04:49:39.421Z,94.14
2019-02-22T04:54:39.218Z,94.40
2019-02-22T04:59:40.062Z,94.41
2019-02-22T05:04:40.025Z,94.52
2019-02-22T05:09:39.227Z,94.38
2019-02-22T05:14:38.186Z,94.45
2019-02-22T05:19:38.239Z,94.65
2019-02-22T05:24:38.207Z,94.72
2019-02-22T05:29:37.180Z,94.57
2019-02-22T05:34:36.454Z,94.78
2019-02-22T05:39:37.219Z,94.85
2019-02-22T05:44:37.092Z,94.87
2019-02-22T05:49:37.242Z,94.81
2019-02-22T05:54:37.517Z,94.75
2019-02-22T05:59:37.052Z,94.77
2019-02-22T06:04:36.125Z,94.71
2019-02-22T06:09:35.282Z,94.72
2019-02-22T06:14:34.035Z,94.14
2019-02-22T06:19:34.250Z,94.35
2019-02-22T06:24:33.044Z,94.45
2019-02-22T06:29:33.086Z,94.12
2019-02-22T06:34:33.121Z,94.40
2019-02-22T06:39:32.097Z,94.46
2019-02-22T06:44:32.095Z,94.08
2019-02-22T06:49:31.670Z,94.14
2019-02-22T06:54:31.064Z,94.07
2019-02-22T06:59:30.076Z,93.97
2019-02-22T07:04:30.083Z,94.53
2019-02-22T07:09:29.170Z,94.65
2019-02-22T07:14:28.432Z,94.64
2019-02-22T07:19:28.152Z,94.71
2019-02-22T07:24:27.426Z,94.83
2019-02-22T07:29:26.482Z,95.06
2019-02-22T07:34:26.086Z,95.01
2019-02-22T07:39:28.105Z,95.08
2019-02-22T07:44:27.144Z,95.08
2019-02-22T07:49:27.338Z,95.09
2019-02-22T07:54:28.139Z,94.99
2019-02-22T07:59:29.162Z,94.87
2019-02-22T08:04:29.544Z,94.46
2019-02-22T08:09:29.058Z,93.58
2019-02-22T08:14:28.524Z,93.61
2019-02-22T08:19:27.341Z,93.79
2019-02-22T08:24:27.253Z,93.16
2019-02-22T08:29:27.168Z,92.60
2019-02-22T08:34:26.080Z,91.72
2019-02-22T08:39:26.352Z,91.91
2019-02-22T08:44:26.107Z,91.45
2019-02-22T08:49:25.425Z,92.03
2019-02-22T08:54:25.319Z,91.41
2019-02-22T08:59:26.115Z,91.60
2019-02-22T09:04:27.277Z,91.03
2019-02-22T09:09:27.108Z,89.12
2019-02-22T09:14:26.065Z,89.42
2019-02-22T09:19:26.499Z,89.75
2019-02-22T09:24:26.104Z,89.64
2019-02-22T09:29:27.105Z,88.72
2019-02-22T09:34:26.462Z,87.97
2019-02-22T09:39:26.274Z,87.99
2019-02-22T09:44:26.056Z,87.27
2019-02-22T09:49:25.923Z,88.04
2019-02-22T09:54:24.468Z,86.24
2019-02-22T09:59:23.722Z,86.82
2019-02-22T10:04:23.100Z,85.34
2019-02-22T10:09:24.097Z,85.56
2019-02-22T10:14:23.071Z,85.12
2019-02-22T10:19:23.125Z,83.24
2019-02-22T10:24:23.114Z,84.89
2019-02-22T10:29:23.104Z,82.27
2019-02-22T10:34:23.071Z,81.80
2019-02-22T10:39:22.384Z,83.49
2019-02-22T10:44:21.174Z,81.61
2019-02-22T10:49:20.094Z,79.90
2019-02-22T10:54:19.095Z,80.43
2019-02-22T10:59:18.276Z,77.08
2019-02-22T11:04:18.148Z,79.15
2019-02-22T11:09:17.148Z,80.07
2019-02-22T11:14:17.125Z,79.33
2019-02-22T11:19:18.076Z,75.66
2019-02-22T11:24:17.155Z,76.82
2019-02-22T11:29:17.087Z,75.77
2019-02-22T11:34:17.074Z,75.74
2019-02-22T11:39:16.078Z,77.26
2019-02-22T11:44:17.357Z,75.91
2019-02-22T11:49:17.104Z,76.81
2019-02-22T11:54:17.100Z,75.73
2019-02-22T11:59:16.329Z,74.53
2019-02-22T12:04:16.105Z,75.60
2019-02-22T12:09:17.101Z,74.47
2019-02-22T12:14:17.084Z,77.06
2019-02-22T12:19:16.386Z,74.94
2019-02-22T12:24:16.161Z,77.16
2019-02-22T12:29:16.095Z,76.59
2019-02-22T12:34:16.094Z,76.55
2019-02-22T12:39:16.104Z,76.36
2019-02-22T12:44:17.150Z,75.74
2019-02-22T12:49:17.101Z,77.61
2019-02-22T12:54:16.667Z,75.73
2019-02-22T12:59:16.126Z,76.30
2019-02-22T13:04:16.102Z,73.41
2019-02-22T13:09:16.122Z,72.79
2019-02-22T13:14:16.089Z,72.31
2019-02-22T13:19:17.114Z,72.27
2019-02-22T13:24:17.155Z,72.92
2019-02-22T13:29:17.150Z,73.63
2019-02-22T13:34:17.131Z,73.09
2019-02-22T13:39:16.523Z,73.44
2019-02-22T13:44:16.102Z,73.65
2019-02-22T13:49:16.123Z,73.93
2019-02-22T13:54:16.058Z,74.00
2019-02-22T13:59:15.096Z,72.64
2019-02-22T14:04:16.124Z,71.27
2019-02-22T14:09:17.066Z,71.25
2019-02-22T14:14:17.068Z,72.75
2019-02-22T14:19:16.131Z,71.38
2019-02-22T14:24:16.082Z,71.99
2019-02-22T14:29:16.151Z,71.62
2019-02-22T14:34:15.061Z,72.39
2019-02-22T14:39:15.084Z,71.95
2019-02-22T14:44:15.104Z,72.78
2019-02-22T14:49:15.065Z,73.69
2019-02-22T14:54:14.418Z,72.90
2019-02-22T14:59:13.312Z,74.62
2019-02-22T15:04:12.253Z,73.39
2019-02-22T15:09:11.111Z,72.11
2019-02-22T15:14:11.072Z,72.34
2019-02-22T15:19:11.072Z,71.96
2019-02-22T15:24:10.212Z,71.93
2019-02-22T15:29:10.062Z,70.96
2019-02-22T15:34:09.076Z,69.87
2019-02-22T15:39:09.125Z,72.29
2019-02-22T15:44:10.168Z,72.42
2019-02-22T15:49:09.234Z,70.65
2019-02-22T15:54:08.335Z,71.34
2019-02-22T15:59:07.355Z,71.61
2019-02-22T16:04:07.344Z,73.08
2019-02-22T16:09:07.037Z,74.00
2019-02-22T16:14:07.287Z,73.66
2019-02-22T16:19:06.075Z,74.55
2019-02-22T16:24:06.066Z,75.28
2019-02-22T16:29:06.262Z,75.97
2019-02-22T16:34:06.115Z,76.18
2019-02-22T16:39:06.132Z,76.02
2019-02-22T16:44:06.093Z,75.90
2019-02-22T16:49:05.277Z,76.00
2019-02-22T16:54:06.147Z,76.75
2019-02-22T16:59:05.128Z,77.06
2019-02-22T17:04:06.116Z,77.63
2019-02-22T17:09:06.250Z,77.38
2019-02-22T17:14:06.259Z,77.84
2019-02-22T17:19:06.091Z,77.76
2019-02-22T17:24:06.088Z,78.16
2019-02-22T17:29:06.128Z,78.01
2019-02-22T17:34:05.100Z,78.16
2019-02-22T17:39:05.100Z,78.69
2019-02-22T17:44:05.113Z,78.42
2019-02-22T17:49:04.311Z,79.12
2019-02-22T17:54:04.102Z,79.21
2019-02-22T17:59:04.069Z,80.06
2019-02-22T18:04:03.247Z,80.79
2019-02-22T18:09:04.159Z,81.83
2019-02-22T18:14:04.080Z,82.28
2019-02-22T18:19:05.111Z,82.52
2019-02-22T18:24:06.133Z,83.03
2019-02-22T18:29:05.749Z,83.38
2019-02-22T18:34:05.071Z,83.32
2019-02-22T18:39:04.091Z,84.08
2019-02-22T18:44:04.119Z,84.64
2019-02-22T18:49:03.130Z,84.72
2019-02-22T18:54:03.185Z,84.75
2019-02-22T18:59:03.121Z,82.64
2019-02-22T19:04:02.668Z,86.13
2019-02-22T19:09:02.084Z,87.19
2019-02-22T19:14:01.032Z,87.35
2019-02-22T19:19:02.212Z,88.43
2019-02-22T19:24:02.198Z,87.56
2019-02-22T19:29:02.143Z,88.69
2019-02-22T19:34:02.159Z,88.23
2019-02-22T19:39:01.200Z,87.55
2019-02-22T19:44:02.128Z,86.33
2019-02-22T19:49:01.123Z,86.40
2019-02-22T19:54:01.150Z,84.99
2019-02-22T19:59:01.232Z,85.98
2019-02-22T20:04:00.092Z,87.45
2019-02-22T20:08:59.334Z,87.36
2019-02-22T20:14:00.376Z,88.58
2019-02-22T20:18:59.109Z,88.87
2019-02-22T20:23:59.276Z,88.31
2019-02-22T20:28:59.166Z,87.14
2019-02-22T20:33:58.495Z,87.66
2019-02-22T20:38:58.174Z,87.68
2019-02-22T20:43:58.161Z,86.60
2019-02-22T20:49:01.140Z,89.30
2019-02-22T20:53:57.265Z,89.57
2019-02-22T20:58:56.572Z,89.90
2019-02-22T21:03:57.170Z,90.74
2019-02-22T21:08:57.188Z,91.50
2019-02-22T21:13:57.189Z,90.30
2019-02-22T21:18:57.467Z,90.06
2019-02-22T21:23:58.184Z,90.65
2019-02-22T21:28:58.175Z,91.41
2019-02-22T21:33:58.190Z,90.60
2019-02-22T21:38:57.457Z,91.08
2019-02-22T21:43:56.182Z,90.93
2019-02-22T21:48:55.497Z,90.06
2019-02-22T21:53:55.623Z,89.05
2019-02-22T22:48:55.423Z,89.23
2019-02-22T22:53:55.177Z,90.15
2019-02-22T22:58:54.468Z,89.82
2019-02-22T23:03:55.421Z,91.03
2019-02-22T23:08:54.415Z,89.72
2019-02-22T23:13:53.523Z,90.85
2019-02-22T23:19:01.550Z,90.49
2019-02-22T23:23:52.233Z,91.21
2019-02-22T23:28:52.335Z,92.22
2019-02-22T23:33:53.181Z,91.83
2019-02-22T23:38:53.684Z,91.21
2019-02-22T23:43:54.207Z,91.31
2019-02-22T23:48:55.195Z,90.95
2019-02-22T23:53:55.217Z,91.50
2019-02-22T23:58:55.202Z,91.79
